sensor_id;sensor_type;location;lat;lon;timestamp;P1;durP1;ratioP1;P2;durP2;ratioP2
870;SDS011;422;51.280;7.236;2023-07-02T00:02:30;6.37;;;4.87;;
870;SDS011;422;51.280;7.236;2023-07-02T00:04:58;6.77;;;5.10;;
870;SDS011;422;51.280;7.236;2023-07-02T00:07:25;6.40;;;5.10;;
870;SDS011;422;51.280;7.236;2023-07-02T00:09:53;7.07;;;5.17;;
870;SDS011;422;51.280;7.236;2023-07-02T00:12:20;5.20;;;4.70;;
870;SDS011;422;51.280;7.236;2023-07-02T00:14:47;10.03;;;5.03;;
870;SDS011;422;51.280;7.236;2023-07-02T00:17:18;8.40;;;5.30;;
870;SDS011;422;51.280;7.236;2023-07-02T00:19:45;10.83;;;6.00;;
870;SDS011;422;51.280;7.236;2023-07-02T00:22:13;6.87;;;5.90;;
870;SDS011;422;51.280;7.236;2023-07-02T00:24:41;7.93;;;6.40;;
870;SDS011;422;51.280;7.236;2023-07-02T00:27:08;6.33;;;5.43;;
870;SDS011;422;51.280;7.236;2023-07-02T00:29:35;9.53;;;7.20;;
870;SDS011;422;51.280;7.236;2023-07-02T00:32:03;7.13;;;5.73;;
870;SDS011;422;51.280;7.236;2023-07-02T00:34:31;7.20;;;5.40;;
870;SDS011;422;51.280;7.236;2023-07-02T00:36:58;7.47;;;5.67;;
870;SDS011;422;51.280;7.236;2023-07-02T00:39:26;9.77;;;6.33;;
870;SDS011;422;51.280;7.236;2023-07-02T00:41:54;8.13;;;5.57;;
870;SDS011;422;51.280;7.236;2023-07-02T00:44:26;7.63;;;6.57;;
870;SDS011;422;51.280;7.236;2023-07-02T00:46:53;9.37;;;6.20;;
870;SDS011;422;51.280;7.236;2023-07-02T00:49:20;8.10;;;5.93;;
870;SDS011;422;51.280;7.236;2023-07-02T00:51:48;7.40;;;6.37;;
870;SDS011;422;51.280;7.236;2023-07-02T00:54:15;11.80;;;6.03;;
870;SDS011;422;51.280;7.236;2023-07-02T00:56:44;9.80;;;6.23;;
870;SDS011;422;51.280;7.236;2023-07-02T00:59:11;10.10;;;6.27;;
870;SDS011;422;51.280;7.236;2023-07-02T01:01:38;8.13;;;5.40;;
870;SDS011;422;51.280;7.236;2023-07-02T01:04:06;7.60;;;4.97;;
870;SDS011;422;51.280;7.236;2023-07-02T01:06:35;8.40;;;5.50;;
870;SDS011;422;51.280;7.236;2023-07-02T01:09:06;5.83;;;4.93;;
870;SDS011;422;51.280;7.236;2023-07-02T01:11:34;9.80;;;6.30;;
870;SDS011;422;51.280;7.236;2023-07-02T01:14:05;8.73;;;5.47;;
870;SDS011;422;51.280;7.236;2023-07-02T01:16:35;7.47;;;5.90;;
870;SDS011;422;51.280;7.236;2023-07-02T01:19:05;7.80;;;5.30;;
870;SDS011;422;51.280;7.236;2023-07-02T01:21:39;9.27;;;5.97;;
870;SDS011;422;51.280;7.236;2023-07-02T01:24:07;8.50;;;5.40;;
870;SDS011;422;51.280;7.236;2023-07-02T01:26:34;7.83;;;6.60;;
870;SDS011;422;51.280;7.236;2023-07-02T01:29:12;8.67;;;6.00;;
870;SDS011;422;51.280;7.236;2023-07-02T01:31:40;11.80;;;6.20;;
870;SDS011;422;51.280;7.236;2023-07-02T01:34:08;11.30;;;6.30;;
870;SDS011;422;51.280;7.236;2023-07-02T01:36:35;10.30;;;6.23;;
870;SDS011;422;51.280;7.236;2023-07-02T01:39:04;10.80;;;6.87;;
870;SDS011;422;51.280;7.236;2023-07-02T01:41:33;9.47;;;5.90;;
870;SDS011;422;51.280;7.236;2023-07-02T01:44:03;8.83;;;6.17;;
870;SDS011;422;51.280;7.236;2023-07-02T01:46:31;11.83;;;6.97;;
870;SDS011;422;51.280;7.236;2023-07-02T01:48:58;13.73;;;7.40;;
870;SDS011;422;51.280;7.236;2023-07-02T01:51:25;16.43;;;8.17;;
870;SDS011;422;51.280;7.236;2023-07-02T01:53:52;12.50;;;7.70;;
870;SDS011;422;51.280;7.236;2023-07-02T01:56:20;12.47;;;7.73;;
870;SDS011;422;51.280;7.236;2023-07-02T01:58:48;10.87;;;7.47;;
870;SDS011;422;51.280;7.236;2023-07-02T02:01:15;12.90;;;7.93;;
870;SDS011;422;51.280;7.236;2023-07-02T02:03:42;24.30;;;8.23;;
870;SDS011;422;51.280;7.236;2023-07-02T02:06:09;10.17;;;7.93;;
870;SDS011;422;51.280;7.236;2023-07-02T02:08:36;14.00;;;8.87;;
870;SDS011;422;51.280;7.236;2023-07-02T02:11:04;15.23;;;8.57;;
870;SDS011;422;51.280;7.236;2023-07-02T02:13:32;12.73;;;8.33;;
870;SDS011;422;51.280;7.236;2023-07-02T02:15:59;15.77;;;9.40;;
870;SDS011;422;51.280;7.236;2023-07-02T02:18:26;12.00;;;9.60;;
870;SDS011;422;51.280;7.236;2023-07-02T02:20:53;10.27;;;9.23;;
870;SDS011;422;51.280;7.236;2023-07-02T02:23:20;12.83;;;9.23;;
870;SDS011;422;51.280;7.236;2023-07-02T02:25:47;16.77;;;9.40;;
870;SDS011;422;51.280;7.236;2023-07-02T02:28:15;13.60;;;9.27;;
870;SDS011;422;51.280;7.236;2023-07-02T02:30:43;12.93;;;9.03;;
870;SDS011;422;51.280;7.236;2023-07-02T02:33:10;19.40;;;10.47;;
870;SDS011;422;51.280;7.236;2023-07-02T02:35:37;17.53;;;9.90;;
870;SDS011;422;51.280;7.236;2023-07-02T02:38:04;18.03;;;9.57;;
870;SDS011;422;51.280;7.236;2023-07-02T02:40:31;15.57;;;9.70;;
870;SDS011;422;51.280;7.236;2023-07-02T02:42:59;15.23;;;10.40;;
870;SDS011;422;51.280;7.236;2023-07-02T02:45:27;15.13;;;10.43;;
870;SDS011;422;51.280;7.236;2023-07-02T02:47:55;14.80;;;9.73;;
870;SDS011;422;51.280;7.236;2023-07-02T02:50:22;19.00;;;10.60;;
870;SDS011;422;51.280;7.236;2023-07-02T02:52:50;18.03;;;11.10;;
870;SDS011;422;51.280;7.236;2023-07-02T02:55:17;22.43;;;10.93;;
870;SDS011;422;51.280;7.236;2023-07-02T02:57:44;15.97;;;12.13;;
870;SDS011;422;51.280;7.236;2023-07-02T03:00:11;19.10;;;11.20;;
870;SDS011;422;51.280;7.236;2023-07-02T03:02:39;15.73;;;11.03;;
870;SDS011;422;51.280;7.236;2023-07-02T03:05:08;17.50;;;11.67;;
870;SDS011;422;51.280;7.236;2023-07-02T03:07:35;19.60;;;12.73;;
870;SDS011;422;51.280;7.236;2023-07-02T03:10:02;20.60;;;11.83;;
870;SDS011;422;51.280;7.236;2023-07-02T03:12:30;20.40;;;11.10;;
870;SDS011;422;51.280;7.236;2023-07-02T03:14:57;17.00;;;12.07;;
870;SDS011;422;51.280;7.236;2023-07-02T03:17:24;19.30;;;11.67;;
870;SDS011;422;51.280;7.236;2023-07-02T03:19:52;21.07;;;13.20;;
870;SDS011;422;51.280;7.236;2023-07-02T03:22:20;18.43;;;12.80;;
870;SDS011;422;51.280;7.236;2023-07-02T03:24:47;18.00;;;13.10;;
870;SDS011;422;51.280;7.236;2023-07-02T03:27:14;23.67;;;14.03;;
870;SDS011;422;51.280;7.236;2023-07-02T03:29:41;21.33;;;13.10;;
870;SDS011;422;51.280;7.236;2023-07-02T03:32:08;24.20;;;14.80;;
870;SDS011;422;51.280;7.236;2023-07-02T03:34:36;23.00;;;14.73;;
870;SDS011;422;51.280;7.236;2023-07-02T03:37:10;20.00;;;13.73;;
870;SDS011;422;51.280;7.236;2023-07-02T03:39:39;18.37;;;13.30;;
870;SDS011;422;51.280;7.236;2023-07-02T03:42:06;21.57;;;13.70;;
870;SDS011;422;51.280;7.236;2023-07-02T03:44:33;22.53;;;14.70;;
870;SDS011;422;51.280;7.236;2023-07-02T03:47:00;23.50;;;16.60;;
870;SDS011;422;51.280;7.236;2023-07-02T03:49:27;19.50;;;14.20;;
870;SDS011;422;51.280;7.236;2023-07-02T03:51:55;20.17;;;14.63;;
870;SDS011;422;51.280;7.236;2023-07-02T03:54:22;23.07;;;16.23;;
870;SDS011;422;51.280;7.236;2023-07-02T03:56:51;20.87;;;14.80;;
870;SDS011;422;51.280;7.236;2023-07-02T03:59:18;21.47;;;14.67;;
870;SDS011;422;51.280;7.236;2023-07-02T04:01:45;21.67;;;15.13;;
870;SDS011;422;51.280;7.236;2023-07-02T04:04:13;31.37;;;18.63;;
870;SDS011;422;51.280;7.236;2023-07-02T04:06:40;23.07;;;15.20;;
870;SDS011;422;51.280;7.236;2023-07-02T04:09:07;26.70;;;17.20;;
870;SDS011;422;51.280;7.236;2023-07-02T04:11:35;26.67;;;16.27;;
870;SDS011;422;51.280;7.236;2023-07-02T04:14:03;23.47;;;15.57;;
870;SDS011;422;51.280;7.236;2023-07-02T04:16:30;24.57;;;15.47;;
870;SDS011;422;51.280;7.236;2023-07-02T04:18:57;21.00;;;15.83;;
870;SDS011;422;51.280;7.236;2023-07-02T04:21:24;26.33;;;18.50;;
870;SDS011;422;51.280;7.236;2023-07-02T04:23:52;25.03;;;16.33;;
870;SDS011;422;51.280;7.236;2023-07-02T04:26:19;27.00;;;18.30;;
870;SDS011;422;51.280;7.236;2023-07-02T04:28:46;27.83;;;17.70;;
870;SDS011;422;51.280;7.236;2023-07-02T04:31:15;23.43;;;16.93;;
870;SDS011;422;51.280;7.236;2023-07-02T04:33:42;29.67;;;17.50;;
870;SDS011;422;51.280;7.236;2023-07-02T04:36:09;29.93;;;19.50;;
870;SDS011;422;51.280;7.236;2023-07-02T04:38:37;30.17;;;18.60;;
870;SDS011;422;51.280;7.236;2023-07-02T04:41:05;28.63;;;17.30;;
870;SDS011;422;51.280;7.236;2023-07-02T04:43:35;24.73;;;16.87;;
870;SDS011;422;51.280;7.236;2023-07-02T04:46:02;33.43;;;19.50;;
870;SDS011;422;51.280;7.236;2023-07-02T04:48:34;26.87;;;18.20;;
870;SDS011;422;51.280;7.236;2023-07-02T04:51:01;27.03;;;17.20;;
870;SDS011;422;51.280;7.236;2023-07-02T04:53:29;31.27;;;18.80;;
870;SDS011;422;51.280;7.236;2023-07-02T04:55:56;25.60;;;17.90;;
870;SDS011;422;51.280;7.236;2023-07-02T04:58:23;26.17;;;18.00;;
870;SDS011;422;51.280;7.236;2023-07-02T05:00:50;30.10;;;19.60;;
870;SDS011;422;51.280;7.236;2023-07-02T05:03:17;26.73;;;19.37;;
870;SDS011;422;51.280;7.236;2023-07-02T05:05:46;22.63;;;17.47;;
870;SDS011;422;51.280;7.236;2023-07-02T05:08:13;24.10;;;18.40;;
870;SDS011;422;51.280;7.236;2023-07-02T05:10:41;27.13;;;18.37;;
870;SDS011;422;51.280;7.236;2023-07-02T05:13:09;25.17;;;17.73;;
870;SDS011;422;51.280;7.236;2023-07-02T05:15:36;34.43;;;18.33;;
870;SDS011;422;51.280;7.236;2023-07-02T05:18:03;33.03;;;19.17;;
870;SDS011;422;51.280;7.236;2023-07-02T05:20:31;28.07;;;19.43;;
870;SDS011;422;51.280;7.236;2023-07-02T05:23:00;25.43;;;18.50;;
870;SDS011;422;51.280;7.236;2023-07-02T05:25:27;25.90;;;18.20;;
870;SDS011;422;51.280;7.236;2023-07-02T05:27:54;26.70;;;18.73;;
870;SDS011;422;51.280;7.236;2023-07-02T05:30:22;32.57;;;19.70;;
870;SDS011;422;51.280;7.236;2023-07-02T05:32:49;28.60;;;18.53;;
870;SDS011;422;51.280;7.236;2023-07-02T05:35:16;29.60;;;19.10;;
870;SDS011;422;51.280;7.236;2023-07-02T05:37:43;31.43;;;21.03;;
870;SDS011;422;51.280;7.236;2023-07-02T05:40:13;31.90;;;21.93;;
870;SDS011;422;51.280;7.236;2023-07-02T05:42:40;31.90;;;20.67;;
870;SDS011;422;51.280;7.236;2023-07-02T05:45:08;35.30;;;20.60;;
870;SDS011;422;51.280;7.236;2023-07-02T05:47:36;29.30;;;19.57;;
870;SDS011;422;51.280;7.236;2023-07-02T05:50:03;29.13;;;20.40;;
870;SDS011;422;51.280;7.236;2023-07-02T05:52:31;25.17;;;18.90;;
870;SDS011;422;51.280;7.236;2023-07-02T05:54:58;31.30;;;20.67;;
870;SDS011;422;51.280;7.236;2023-07-02T05:57:27;36.07;;;21.93;;
870;SDS011;422;51.280;7.236;2023-07-02T05:59:54;26.90;;;19.13;;
870;SDS011;422;51.280;7.236;2023-07-02T06:02:21;32.20;;;20.50;;
870;SDS011;422;51.280;7.236;2023-07-02T06:04:49;28.87;;;19.37;;
870;SDS011;422;51.280;7.236;2023-07-02T06:07:16;29.60;;;19.90;;
870;SDS011;422;51.280;7.236;2023-07-02T06:09:43;32.33;;;19.53;;
870;SDS011;422;51.280;7.236;2023-07-02T06:12:10;31.67;;;21.00;;
870;SDS011;422;51.280;7.236;2023-07-02T06:14:39;27.93;;;20.80;;
870;SDS011;422;51.280;7.236;2023-07-02T06:17:06;24.50;;;18.97;;
870;SDS011;422;51.280;7.236;2023-07-02T06:19:35;37.93;;;22.20;;
870;SDS011;422;51.280;7.236;2023-07-02T06:22:03;29.20;;;21.17;;
870;SDS011;422;51.280;7.236;2023-07-02T06:24:30;28.13;;;19.27;;
870;SDS011;422;51.280;7.236;2023-07-02T06:26:57;32.03;;;20.83;;
870;SDS011;422;51.280;7.236;2023-07-02T06:29:24;29.53;;;22.57;;
870;SDS011;422;51.280;7.236;2023-07-02T06:31:55;27.90;;;20.70;;
870;SDS011;422;51.280;7.236;2023-07-02T06:34:22;30.17;;;20.90;;
870;SDS011;422;51.280;7.236;2023-07-02T06:36:49;26.90;;;19.07;;
870;SDS011;422;51.280;7.236;2023-07-02T06:39:16;32.37;;;20.73;;
870;SDS011;422;51.280;7.236;2023-07-02T06:41:43;28.67;;;18.27;;
870;SDS011;422;51.280;7.236;2023-07-02T06:44:10;31.63;;;19.10;;
870;SDS011;422;51.280;7.236;2023-07-02T06:46:37;29.77;;;18.83;;
870;SDS011;422;51.280;7.236;2023-07-02T06:49:06;24.07;;;18.27;;
870;SDS011;422;51.280;7.236;2023-07-02T06:51:33;28.23;;;18.03;;
870;SDS011;422;51.280;7.236;2023-07-02T06:54:01;23.67;;;17.30;;
870;SDS011;422;51.280;7.236;2023-07-02T06:56:28;25.47;;;18.30;;
870;SDS011;422;51.280;7.236;2023-07-02T06:58:59;26.03;;;17.50;;
870;SDS011;422;51.280;7.236;2023-07-02T07:01:26;29.20;;;18.80;;
870;SDS011;422;51.280;7.236;2023-07-02T07:03:53;30.47;;;18.23;;
870;SDS011;422;51.280;7.236;2023-07-02T07:06:22;26.80;;;18.47;;
870;SDS011;422;51.280;7.236;2023-07-02T07:08:49;28.57;;;18.13;;
870;SDS011;422;51.280;7.236;2023-07-02T07:11:17;25.17;;;17.50;;
870;SDS011;422;51.280;7.236;2023-07-02T07:13:44;30.63;;;17.63;;
870;SDS011;422;51.280;7.236;2023-07-02T07:16:11;26.23;;;15.27;;
870;SDS011;422;51.280;7.236;2023-07-02T07:18:38;26.87;;;17.53;;
870;SDS011;422;51.280;7.236;2023-07-02T07:21:05;24.00;;;16.40;;
870;SDS011;422;51.280;7.236;2023-07-02T07:23:34;26.53;;;16.93;;
870;SDS011;422;51.280;7.236;2023-07-02T07:26:01;27.33;;;17.87;;
870;SDS011;422;51.280;7.236;2023-07-02T07:28:28;26.17;;;17.03;;
870;SDS011;422;51.280;7.236;2023-07-02T07:30:55;23.20;;;17.10;;
870;SDS011;422;51.280;7.236;2023-07-02T07:33:23;23.47;;;16.30;;
870;SDS011;422;51.280;7.236;2023-07-02T07:35:50;24.93;;;16.60;;
870;SDS011;422;51.280;7.236;2023-07-02T07:38:17;22.97;;;15.20;;
870;SDS011;422;51.280;7.236;2023-07-02T07:40:46;23.70;;;15.40;;
870;SDS011;422;51.280;7.236;2023-07-02T07:43:13;25.87;;;16.30;;
870;SDS011;422;51.280;7.236;2023-07-02T07:45:40;26.03;;;16.33;;
870;SDS011;422;51.280;7.236;2023-07-02T07:48:07;22.83;;;15.10;;
870;SDS011;422;51.280;7.236;2023-07-02T07:50:35;25.57;;;16.63;;
870;SDS011;422;51.280;7.236;2023-07-02T07:53:02;20.33;;;14.90;;
870;SDS011;422;51.280;7.236;2023-07-02T07:55:29;20.40;;;15.90;;
870;SDS011;422;51.280;7.236;2023-07-02T07:57:58;26.33;;;15.60;;
870;SDS011;422;51.280;7.236;2023-07-02T08:00:25;23.17;;;15.80;;
870;SDS011;422;51.280;7.236;2023-07-02T08:02:55;22.80;;;16.10;;
870;SDS011;422;51.280;7.236;2023-07-02T08:05:24;29.57;;;16.57;;
870;SDS011;422;51.280;7.236;2023-07-02T08:07:52;22.20;;;15.27;;
870;SDS011;422;51.280;7.236;2023-07-02T08:10:19;19.70;;;14.07;;
870;SDS011;422;51.280;7.236;2023-07-02T08:12:47;20.60;;;12.20;;
870;SDS011;422;51.280;7.236;2023-07-02T08:15:16;20.03;;;12.20;;
870;SDS011;422;51.280;7.236;2023-07-02T08:17:43;19.80;;;13.23;;
870;SDS011;422;51.280;7.236;2023-07-02T08:20:10;17.67;;;13.03;;
870;SDS011;422;51.280;7.236;2023-07-02T08:22:38;22.13;;;15.27;;
870;SDS011;422;51.280;7.236;2023-07-02T08:25:06;20.33;;;13.53;;
870;SDS011;422;51.280;7.236;2023-07-02T08:27:34;22.03;;;13.23;;
870;SDS011;422;51.280;7.236;2023-07-02T08:30:01;23.17;;;13.63;;
870;SDS011;422;51.280;7.236;2023-07-02T08:32:32;23.00;;;14.40;;
870;SDS011;422;51.280;7.236;2023-07-02T08:35:00;19.07;;;14.13;;
870;SDS011;422;51.280;7.236;2023-07-02T08:37:27;18.83;;;12.60;;
870;SDS011;422;51.280;7.236;2023-07-02T08:39:54;20.33;;;14.70;;
870;SDS011;422;51.280;7.236;2023-07-02T08:42:21;23.40;;;13.23;;
870;SDS011;422;51.280;7.236;2023-07-02T08:44:53;22.70;;;14.97;;
870;SDS011;422;51.280;7.236;2023-07-02T08:47:26;21.00;;;15.63;;
870;SDS011;422;51.280;7.236;2023-07-02T08:49:55;24.83;;;17.10;;
870;SDS011;422;51.280;7.236;2023-07-02T08:52:23;20.47;;;14.97;;
870;SDS011;422;51.280;7.236;2023-07-02T08:54:50;26.93;;;16.93;;
870;SDS011;422;51.280;7.236;2023-07-02T08:57:17;26.20;;;15.67;;
870;SDS011;422;51.280;7.236;2023-07-02T08:59:46;22.77;;;13.93;;
870;SDS011;422;51.280;7.236;2023-07-02T09:02:16;19.20;;;14.40;;
870;SDS011;422;51.280;7.236;2023-07-02T09:04:44;23.90;;;15.37;;
870;SDS011;422;51.280;7.236;2023-07-02T09:07:12;20.13;;;13.53;;
870;SDS011;422;51.280;7.236;2023-07-02T09:09:46;20.47;;;14.70;;
870;SDS011;422;51.280;7.236;2023-07-02T09:12:24;20.43;;;14.03;;
870;SDS011;422;51.280;7.236;2023-07-02T09:14:55;20.83;;;14.67;;
870;SDS011;422;51.280;7.236;2023-07-02T09:17:26;21.10;;;14.80;;
870;SDS011;422;51.280;7.236;2023-07-02T09:19:54;20.83;;;14.50;;
870;SDS011;422;51.280;7.236;2023-07-02T09:22:23;22.93;;;15.97;;
870;SDS011;422;51.280;7.236;2023-07-02T09:24:51;24.07;;;17.13;;
870;SDS011;422;51.280;7.236;2023-07-02T09:27:20;21.87;;;15.60;;
870;SDS011;422;51.280;7.236;2023-07-02T09:29:50;24.07;;;16.47;;
870;SDS011;422;51.280;7.236;2023-07-02T09:32:25;23.33;;;15.30;;
870;SDS011;422;51.280;7.236;2023-07-02T09:34:54;25.57;;;15.17;;
870;SDS011;422;51.280;7.236;2023-07-02T09:37:25;25.93;;;16.37;;
870;SDS011;422;51.280;7.236;2023-07-02T09:39:56;18.43;;;13.93;;
870;SDS011;422;51.280;7.236;2023-07-02T09:42:24;21.20;;;15.80;;
870;SDS011;422;51.280;7.236;2023-07-02T09:44:52;22.50;;;15.50;;
870;SDS011;422;51.280;7.236;2023-07-02T09:47:21;24.57;;;15.10;;
870;SDS011;422;51.280;7.236;2023-07-02T09:49:51;18.80;;;13.50;;
870;SDS011;422;51.280;7.236;2023-07-02T09:52:20;22.40;;;16.00;;
870;SDS011;422;51.280;7.236;2023-07-02T09:54:49;24.10;;;16.53;;
870;SDS011;422;51.280;7.236;2023-07-02T09:57:17;25.53;;;16.70;;
870;SDS011;422;51.280;7.236;2023-07-02T09:59:44;26.20;;;14.70;;
870;SDS011;422;51.280;7.236;2023-07-02T10:02:12;21.67;;;15.57;;
870;SDS011;422;51.280;7.236;2023-07-02T10:04:40;21.10;;;15.23;;
870;SDS011;422;51.280;7.236;2023-07-02T10:07:08;24.10;;;17.10;;
870;SDS011;422;51.280;7.236;2023-07-02T10:09:36;25.63;;;16.07;;
870;SDS011;422;51.280;7.236;2023-07-02T10:12:16;27.37;;;18.50;;
870;SDS011;422;51.280;7.236;2023-07-02T10:14:44;21.17;;;16.77;;
870;SDS011;422;51.280;7.236;2023-07-02T10:17:22;24.57;;;18.23;;
870;SDS011;422;51.280;7.236;2023-07-02T10:19:54;26.80;;;16.40;;
870;SDS011;422;51.280;7.236;2023-07-02T10:22:22;23.10;;;17.57;;
870;SDS011;422;51.280;7.236;2023-07-02T10:24:50;24.50;;;16.93;;
870;SDS011;422;51.280;7.236;2023-07-02T10:27:33;24.47;;;18.37;;
870;SDS011;422;51.280;7.236;2023-07-02T10:30:02;25.90;;;17.27;;
870;SDS011;422;51.280;7.236;2023-07-02T10:32:30;28.03;;;17.47;;
870;SDS011;422;51.280;7.236;2023-07-02T10:34:59;26.33;;;18.20;;
870;SDS011;422;51.280;7.236;2023-07-02T10:37:34;25.80;;;18.43;;
870;SDS011;422;51.280;7.236;2023-07-02T10:40:03;30.13;;;19.43;;
870;SDS011;422;51.280;7.236;2023-07-02T10:42:31;31.90;;;18.63;;
870;SDS011;422;51.280;7.236;2023-07-02T10:45:00;30.03;;;19.63;;
870;SDS011;422;51.280;7.236;2023-07-02T10:47:27;26.37;;;17.73;;
870;SDS011;422;51.280;7.236;2023-07-02T10:49:56;26.17;;;18.40;;
870;SDS011;422;51.280;7.236;2023-07-02T10:52:23;27.77;;;20.13;;
870;SDS011;422;51.280;7.236;2023-07-02T10:54:50;25.50;;;18.70;;
870;SDS011;422;51.280;7.236;2023-07-02T10:57:18;29.33;;;18.93;;
870;SDS011;422;51.280;7.236;2023-07-02T10:59:47;35.80;;;19.90;;
870;SDS011;422;51.280;7.236;2023-07-02T11:02:15;29.70;;;16.50;;
870;SDS011;422;51.280;7.236;2023-07-02T11:04:44;24.07;;;15.47;;
870;SDS011;422;51.280;7.236;2023-07-02T11:07:13;26.63;;;16.23;;
870;SDS011;422;51.280;7.236;2023-07-02T11:09:49;23.10;;;15.20;;
870;SDS011;422;51.280;7.236;2023-07-02T11:12:16;21.50;;;14.17;;
870;SDS011;422;51.280;7.236;2023-07-02T11:14:43;26.80;;;15.40;;
870;SDS011;422;51.280;7.236;2023-07-02T11:17:12;20.30;;;14.07;;
870;SDS011;422;51.280;7.236;2023-07-02T11:19:39;18.23;;;13.40;;
870;SDS011;422;51.280;7.236;2023-07-02T11:22:07;17.47;;;12.53;;
870;SDS011;422;51.280;7.236;2023-07-02T11:24:34;18.43;;;11.97;;
870;SDS011;422;51.280;7.236;2023-07-02T11:27:05;18.40;;;12.60;;
870;SDS011;422;51.280;7.236;2023-07-02T11:29:33;26.33;;;13.97;;
870;SDS011;422;51.280;7.236;2023-07-02T11:32:04;19.70;;;12.57;;
870;SDS011;422;51.280;7.236;2023-07-02T11:34:33;14.80;;;11.37;;
870;SDS011;422;51.280;7.236;2023-07-02T11:37:00;16.23;;;11.47;;
870;SDS011;422;51.280;7.236;2023-07-02T11:39:28;17.40;;;10.10;;
870;SDS011;422;51.280;7.236;2023-07-02T11:41:55;13.33;;;10.03;;
870;SDS011;422;51.280;7.236;2023-07-02T11:44:22;13.00;;;9.27;;
870;SDS011;422;51.280;7.236;2023-07-02T11:46:50;14.37;;;10.70;;
870;SDS011;422;51.280;7.236;2023-07-02T11:49:18;12.77;;;10.17;;
870;SDS011;422;51.280;7.236;2023-07-02T11:51:47;16.30;;;10.50;;
870;SDS011;422;51.280;7.236;2023-07-02T11:54:14;12.33;;;10.17;;
870;SDS011;422;51.280;7.236;2023-07-02T11:56:43;13.07;;;9.73;;
870;SDS011;422;51.280;7.236;2023-07-02T11:59:11;13.77;;;11.23;;
870;SDS011;422;51.280;7.236;2023-07-02T12:01:38;13.90;;;9.60;;
870;SDS011;422;51.280;7.236;2023-07-02T12:04:05;15.07;;;11.23;;
870;SDS011;422;51.280;7.236;2023-07-02T12:06:33;14.97;;;9.90;;
870;SDS011;422;51.280;7.236;2023-07-02T12:09:01;15.27;;;10.50;;
870;SDS011;422;51.280;7.236;2023-07-02T12:11:31;16.80;;;11.10;;
870;SDS011;422;51.280;7.236;2023-07-02T12:13:58;15.67;;;10.67;;
870;SDS011;422;51.280;7.236;2023-07-02T12:16:26;15.70;;;10.40;;
870;SDS011;422;51.280;7.236;2023-07-02T12:18:53;13.80;;;9.87;;
870;SDS011;422;51.280;7.236;2023-07-02T12:21:20;12.43;;;9.43;;
870;SDS011;422;51.280;7.236;2023-07-02T12:23:47;14.97;;;10.10;;
870;SDS011;422;51.280;7.236;2023-07-02T12:26:16;14.43;;;10.10;;
870;SDS011;422;51.280;7.236;2023-07-02T12:28:43;13.93;;;11.80;;
870;SDS011;422;51.280;7.236;2023-07-02T12:31:11;13.23;;;8.77;;
870;SDS011;422;51.280;7.236;2023-07-02T12:33:38;18.23;;;9.93;;
870;SDS011;422;51.280;7.236;2023-07-02T12:36:06;15.47;;;9.07;;
870;SDS011;422;51.280;7.236;2023-07-02T12:38:33;13.40;;;10.13;;
870;SDS011;422;51.280;7.236;2023-07-02T12:41:00;14.23;;;9.30;;
870;SDS011;422;51.280;7.236;2023-07-02T12:43:29;11.77;;;10.53;;
870;SDS011;422;51.280;7.236;2023-07-02T12:45:56;15.27;;;10.57;;
870;SDS011;422;51.280;7.236;2023-07-02T12:48:23;13.70;;;9.37;;
870;SDS011;422;51.280;7.236;2023-07-02T12:50:54;17.87;;;12.30;;
870;SDS011;422;51.280;7.236;2023-07-02T12:53:21;17.60;;;10.60;;
870;SDS011;422;51.280;7.236;2023-07-02T12:55:49;12.33;;;9.50;;
870;SDS011;422;51.280;7.236;2023-07-02T12:58:16;15.80;;;10.70;;
870;SDS011;422;51.280;7.236;2023-07-02T13:00:45;11.90;;;9.93;;
870;SDS011;422;51.280;7.236;2023-07-02T13:03:13;12.97;;;10.07;;
870;SDS011;422;51.280;7.236;2023-07-02T13:05:43;16.63;;;10.73;;
870;SDS011;422;51.280;7.236;2023-07-02T13:08:10;16.43;;;12.03;;
870;SDS011;422;51.280;7.236;2023-07-02T13:10:40;17.30;;;11.67;;
870;SDS011;422;51.280;7.236;2023-07-02T13:13:07;16.70;;;10.73;;
870;SDS011;422;51.280;7.236;2023-07-02T13:15:35;15.10;;;9.50;;
870;SDS011;422;51.280;7.236;2023-07-02T13:18:05;15.60;;;9.63;;
870;SDS011;422;51.280;7.236;2023-07-02T13:20:32;14.00;;;12.47;;
870;SDS011;422;51.280;7.236;2023-07-02T13:22:59;24.77;;;19.47;;
870;SDS011;422;51.280;7.236;2023-07-02T13:25:26;15.87;;;11.00;;
870;SDS011;422;51.280;7.236;2023-07-02T13:27:55;14.60;;;9.93;;
870;SDS011;422;51.280;7.236;2023-07-02T13:30:22;14.87;;;9.77;;
870;SDS011;422;51.280;7.236;2023-07-02T13:32:49;12.70;;;9.93;;
870;SDS011;422;51.280;7.236;2023-07-02T13:35:19;15.40;;;10.20;;
870;SDS011;422;51.280;7.236;2023-07-02T13:37:47;14.43;;;9.50;;
870;SDS011;422;51.280;7.236;2023-07-02T13:40:15;13.50;;;10.10;;
870;SDS011;422;51.280;7.236;2023-07-02T13:42:42;15.87;;;10.23;;
870;SDS011;422;51.280;7.236;2023-07-02T13:45:10;16.93;;;10.23;;
870;SDS011;422;51.280;7.236;2023-07-02T13:47:37;16.37;;;10.73;;
870;SDS011;422;51.280;7.236;2023-07-02T13:50:05;17.10;;;11.87;;
870;SDS011;422;51.280;7.236;2023-07-02T13:52:34;15.43;;;10.63;;
870;SDS011;422;51.280;7.236;2023-07-02T13:55:01;14.10;;;10.40;;
870;SDS011;422;51.280;7.236;2023-07-02T13:57:31;15.37;;;10.27;;
870;SDS011;422;51.280;7.236;2023-07-02T13:59:59;14.63;;;10.00;;
870;SDS011;422;51.280;7.236;2023-07-02T14:02:26;12.63;;;9.30;;
870;SDS011;422;51.280;7.236;2023-07-02T14:04:56;15.53;;;9.83;;
870;SDS011;422;51.280;7.236;2023-07-02T14:07:23;14.43;;;10.93;;
870;SDS011;422;51.280;7.236;2023-07-02T14:09:51;13.63;;;10.37;;
870;SDS011;422;51.280;7.236;2023-07-02T14:12:18;16.13;;;10.60;;
870;SDS011;422;51.280;7.236;2023-07-02T14:14:45;14.53;;;10.60;;
870;SDS011;422;51.280;7.236;2023-07-02T14:17:14;12.07;;;9.57;;
870;SDS011;422;51.280;7.236;2023-07-02T14:19:41;14.17;;;10.00;;
870;SDS011;422;51.280;7.236;2023-07-02T14:22:10;13.50;;;10.20;;
870;SDS011;422;51.280;7.236;2023-07-02T14:24:38;13.57;;;10.27;;
870;SDS011;422;51.280;7.236;2023-07-02T14:27:05;16.87;;;8.80;;
870;SDS011;422;51.280;7.236;2023-07-02T14:29:33;13.43;;;10.70;;
870;SDS011;422;51.280;7.236;2023-07-02T14:32:00;14.03;;;10.37;;
870;SDS011;422;51.280;7.236;2023-07-02T14:34:29;14.07;;;10.83;;
870;SDS011;422;51.280;7.236;2023-07-02T14:36:57;15.70;;;11.50;;
870;SDS011;422;51.280;7.236;2023-07-02T14:39:25;15.53;;;10.37;;
870;SDS011;422;51.280;7.236;2023-07-02T14:41:54;16.80;;;10.50;;
870;SDS011;422;51.280;7.236;2023-07-02T14:44:21;14.53;;;11.40;;
870;SDS011;422;51.280;7.236;2023-07-02T14:46:48;14.47;;;10.43;;
870;SDS011;422;51.280;7.236;2023-07-02T14:49:15;15.37;;;10.43;;
870;SDS011;422;51.280;7.236;2023-07-02T14:51:46;17.30;;;12.20;;
870;SDS011;422;51.280;7.236;2023-07-02T14:54:13;14.13;;;11.50;;
870;SDS011;422;51.280;7.236;2023-07-02T14:56:40;16.63;;;11.13;;
870;SDS011;422;51.280;7.236;2023-07-02T14:59:07;18.90;;;11.13;;
870;SDS011;422;51.280;7.236;2023-07-02T15:01:34;17.00;;;9.90;;
870;SDS011;422;51.280;7.236;2023-07-02T15:04:05;12.90;;;11.13;;
870;SDS011;422;51.280;7.236;2023-07-02T15:06:32;14.27;;;10.77;;
870;SDS011;422;51.280;7.236;2023-07-02T15:09:01;13.33;;;10.43;;
870;SDS011;422;51.280;7.236;2023-07-02T15:11:28;18.93;;;12.63;;
870;SDS011;422;51.280;7.236;2023-07-02T15:13:56;13.20;;;10.17;;
870;SDS011;422;51.280;7.236;2023-07-02T15:16:24;16.53;;;11.70;;
870;SDS011;422;51.280;7.236;2023-07-02T15:18:51;17.87;;;10.90;;
870;SDS011;422;51.280;7.236;2023-07-02T15:21:19;20.10;;;12.17;;
870;SDS011;422;51.280;7.236;2023-07-02T15:23:47;15.63;;;10.83;;
870;SDS011;422;51.280;7.236;2023-07-02T15:26:16;22.83;;;12.13;;